Time;durP1;ratioP1;P1;durP2;ratioP2;P2;SDS_P1;SDS_P2;PMS_P1;PMS_P2;Temp;Humidity;BMP_temperature;BMP_pressure;BME280_temperature;BME280_humidity;BME280_pressure;Samples;Min_cycle;Max_cycle;Signal;HPM_P1;HPM_P2
2022/08/22 00:01:54;;;;;;;;;;;;;;;;;;4984736;28;19933;-77
2022/08/22 00:04:22;;;;;;;;;;;;;;;;;;5007974;28;20043;-76
2022/08/22 00:06:49;;;;;;;;;;;;;;;;;;4991198;28;19937;-77
2022/08/22 00:09:16;;;;;;;;;;;;;;;;;;4978688;28;19988;-77
2022/08/22 00:11:44;;;;;;;;;;;;;;;;;;5004211;28;19988;-76
2022/08/22 00:14:11;;;;;;;;;;;;;;;;;;4977359;28;19952;-78
2022/08/22 00:16:38;;;;;;;;;;;;;;;;;;4993813;28;19925;-76
2022/08/22 00:19:06;;;;;;;;;;;;;;;;;;4992406;28;19929;-78
2022/08/22 00:21:33;;;;;;;;;;;;;;;;;;5010702;28;19936;-77
2022/08/22 00:24:00;;;;;;;;;;;;;;;;;;4991631;28;20544;-77
2022/08/22 00:26:27;;;;;;;;;;;;;;;;;;4990890;28;19930;-78
2022/08/22 00:28:55;;;;;;;;;;;;;;;;;;4990411;28;19929;-76
2022/08/22 00:31:23;;;;;;;;;;;;;;;;;;5008072;28;20029;-78
2022/08/22 00:33:50;;;;;;;;;;;;;;;;;;5002291;28;19929;-78
2022/08/22 00:36:17;;;;;;;;;;;;;;;;;;5007146;28;20756;-76
2022/08/22 00:38:44;;;;;;;;;;;;;;;;;;5009046;28;19933;-78
2022/08/22 00:41:12;;;;;;;;;;;;;;;;;;5010132;28;19930;-77
2022/08/22 00:43:39;;;;;;;;;;;;;;;;;;5021692;28;19932;-77
2022/08/22 00:46:06;;;;;;;;;;;;;;;;;;5007162;28;19929;-78
2022/08/22 00:48:34;;;;;;;;;;;;;;;;;;4994233;28;20016;-77
2022/08/22 00:51:02;;;;;;;;;;;;;;;;;;4994662;28;19960;-78
2022/08/22 00:53:30;;;;;;;;;;;;;;;;;;4993024;28;20204;-78
2022/08/22 00:55:57;;;;;;;;;;;;;;;;;;5008211;28;19956;-77
2022/08/22 00:58:25;;;;;;;;;;;;;;;;;;5010714;28;20024;-76
2022/08/22 01:00:55;;;;;;;;;;;;;;;;;;5017594;28;19937;-77
2022/08/22 01:03:22;;;;;;;;;;;;;;;;;;5030653;28;19976;-77
2022/08/22 01:05:50;;;;;;;;;;;;;;;;;;5003061;28;19992;-76
2022/08/22 01:08:17;;;;;;;;;;;;;;;;;;5017094;28;19933;-75
2022/08/22 01:10:44;;;;;;;;;;;;;;;;;;5011861;28;19926;-78
2022/08/22 01:13:12;;;;;;;;;;;;;;;;;;4991354;28;19996;-76
2022/08/22 01:15:39;;;;;;;;;;;;;;;;;;4991265;28;20043;-77
2022/08/22 01:18:06;;;;;;;;;;;;;;;;;;5006677;28;19933;-77
2022/08/22 01:20:33;;;;;;;;;;;;;;;;;;4991303;28;19959;-78
2022/08/22 01:23:01;;;;;;;;;;;;;;;;;;5011060;28;19925;-78
2022/08/22 01:25:28;;;;;;;;;;;;;;;;;;5009916;28;20024;-76
2022/08/22 01:27:56;;;;;;;;;;;;;;;;;;5008096;28;19930;-78
2022/08/22 01:30:24;;;;;;;;;;;;;;;;;;5006280;28;19929;-77
2022/08/22 01:32:51;;;;;;;;;;;;;;;;;;4992449;28;20357;-77
2022/08/22 01:35:20;;;;;;;;;;;;;;;;;;4994754;28;19929;-77
2022/08/22 01:37:47;;;;;;;;;;;;;;;;;;4993381;28;19929;-74
2022/08/22 01:40:14;;;;;;;;;;;;;;;;;;4993377;28;19972;-78
2022/08/22 01:42:42;;;;;;;;;;;;;;;;;;5009964;28;19993;-77
2022/08/22 01:45:09;;;;;;;;;;;;;;;;;;4986284;28;20445;-78
2022/08/22 01:47:38;;;;;;;;;;;;;;;;;;4989946;28;20023;-78
2022/08/22 01:50:05;;;;;;;;;;;;;;;;;;5012642;28;20024;-78
2022/08/22 01:52:32;;;;;;;;;;;;;;;;;;5030477;28;19984;-78
2022/08/22 01:54:59;;;;;;;;;;;;;;;;;;5014086;28;20048;-77
2022/08/22 01:57:27;;;;;;;;;;;;;;;;;;5009484;28;19929;-77
2022/08/22 01:59:54;;;;;;;;;;;;;;;;;;5008533;28;19925;-76
2022/08/22 02:02:21;;;;;;;;;;;;;;;;;;5008157;28;20424;-78
2022/08/22 02:04:49;;;;;;;;;;;;;;;;;;5005941;28;19931;-76
2022/08/22 02:07:16;;;;;;;;;;;;;;;;;;5004298;28;20554;-78
2022/08/22 02:09:43;;;;;;;;;;;;;;;;;;5000157;28;19929;-77
2022/08/22 02:12:11;;;;;;;;;;;;;;;;;;5000544;28;19925;-76
2022/08/22 02:14:47;;;;;;;;;;;;;;;;;;5006624;28;19929;-76
2022/08/22 02:17:14;;;;;;;;;;;;;;;;;;5010008;28;20056;-78
2022/08/22 02:19:42;;;;;;;;;;;;;;;;;;4992610;28;20324;-76
2022/08/22 02:22:09;;;;;;;;;;;;;;;;;;4996395;28;19929;-77
2022/08/22 02:24:36;;;;;;;;;;;;;;;;;;5009259;28;19933;-78
2022/08/22 02:27:04;;;;;;;;;;;;;;;;;;5005780;28;19925;-77
2022/08/22 02:29:31;;;;;;;;;;;;;;;;;;5010164;28;19969;-77
2022/08/22 02:31:58;;;;;;;;;;;;;;;;;;5017152;28;20028;-76
2022/08/22 02:34:25;;;;;;;;;;;;;;;;;;5011707;28;19928;-78
2022/08/22 02:36:53;;;;;;;;;;;;;;;;;;5021476;28;20002;-77
2022/08/22 02:39:20;;;;;;;;;;;;;;;;;;5013909;28;19930;-77
2022/08/22 02:41:47;;;;;;;;;;;;;;;;;;5007148;28;19959;-78
2022/08/22 02:44:14;;;;;;;;;;;;;;;;;;5014702;28;19930;-76
2022/08/22 02:46:42;;;;;;;;;;;;;;;;;;5012387;28;19929;-77
2022/08/22 02:49:09;;;;;;;;;;;;;;;;;;4995885;28;20369;-76
2022/08/22 02:51:37;;;;;;;;;;;;;;;;;;5006373;28;19932;-77
2022/08/22 02:54:04;;;;;;;;;;;;;;;;;;5008363;28;19929;-77
2022/08/22 02:56:32;;;;;;;;;;;;;;;;;;5024591;28;19970;-76
2022/08/22 02:58:59;;;;;;;;;;;;;;;;;;5020543;28;19933;-78
2022/08/22 03:01:26;;;;;;;;;;;;;;;;;;5013085;28;20016;-77
2022/08/22 03:03:53;;;;;;;;;;;;;;;;;;5007435;28;19940;-75
2022/08/22 03:06:21;;;;;;;;;;;;;;;;;;5010140;28;20404;-75
2022/08/22 03:08:48;;;;;;;;;;;;;;;;;;4989693;28;20263;-75
2022/08/22 03:11:17;;;;;;;;;;;;;;;;;;5011731;28;20020;-77
2022/08/22 03:13:45;;;;;;;;;;;;;;;;;;5010882;28;20205;-76
2022/08/22 03:16:12;;;;;;;;;;;;;;;;;;4991163;28;19937;-77
2022/08/22 03:18:39;;;;;;;;;;;;;;;;;;4992450;28;19957;-77
2022/08/22 03:21:08;;;;;;;;;;;;;;;;;;5009960;28;19930;-77
2022/08/22 03:23:35;;;;;;;;;;;;;;;;;;5000350;28;20310;-76
2022/08/22 03:26:02;;;;;;;;;;;;;;;;;;5013722;28;19929;-78
2022/08/22 03:28:35;;;;;;;;;;;;;;;;;;5015431;28;19941;-77
2022/08/22 03:31:03;;;;;;;;;;;;;;;;;;4992264;28;20012;-76
2022/08/22 03:33:30;;;;;;;;;;;;;;;;;;5002793;28;19933;-77
2022/08/22 03:35:58;;;;;;;;;;;;;;;;;;4994824;28;20031;-77
2022/08/22 03:38:25;;;;;;;;;;;;;;;;;;4992044;28;19940;-77
2022/08/22 03:40:52;;;;;;;;;;;;;;;;;;5008143;28;19929;-77
2022/08/22 03:43:20;;;;;;;;;;;;;;;;;;5010163;28;19929;-75
2022/08/22 03:45:47;;;;;;;;;;;;;;;;;;4987848;28;20000;-77
2022/08/22 03:48:15;;;;;;;;;;;;;;;;;;5009829;28;20004;-76
2022/08/22 03:50:42;;;;;;;;;;;;;;;;;;5010903;28;20405;-76
2022/08/22 03:53:10;;;;;;;;;;;;;;;;;;5004812;28;20024;-76
2022/08/22 03:55:45;;;;;;;;;;;;;;;;;;5009712;28;20464;-77
2022/08/22 03:58:12;;;;;;;;;;;;;;;;;;5011873;28;19936;-76
2022/08/22 04:00:45;;;;;;;;;;;;;;;;;;4975691;28;19988;-75
2022/08/22 04:03:12;;;;;;;;;;;;;;;;;;4988907;28;19936;-77
2022/08/22 04:05:40;;;;;;;;;;;;;;;;;;5001936;28;19968;-76
2022/08/22 04:08:07;;;;;;;;;;;;;;;;;;5007648;28;19929;-77
2022/08/22 04:10:35;;;;;;;;;;;;;;;;;;4996677;28;19948;-76
2022/08/22 04:13:02;;;;;;;;;;;;;;;;;;5004662;28;20244;-76
2022/08/22 04:15:31;;;;;;;;;;;;;;;;;;4992010;28;20023;-76
2022/08/22 04:17:58;;;;;;;;;;;;;;;;;;5013321;28;19944;-77
2022/08/22 04:20:25;;;;;;;;;;;;;;;;;;5016851;28;19930;-77
2022/08/22 04:22:53;;;;;;;;;;;;;;;;;;5009825;28;20024;-76
2022/08/22 04:25:22;;;;;;;;;;;;;;;;;;5010417;28;20740;-76
2022/08/22 04:27:49;;;;;;;;;;;;;;;;;;4993762;28;19930;-77
2022/08/22 04:30:16;;;;;;;;;;;;;;;;;;5008402;28;19933;-75
2022/08/22 04:32:44;;;;;;;;;;;;;;;;;;5022279;28;19929;-77
2022/08/22 04:35:11;;;;;;;;;;;;;;;;;;4998499;28;19965;-77
2022/08/22 04:37:38;;;;;;;;;;;;;;;;;;4988914;28;19930;-76
2022/08/22 04:40:06;;;;;;;;;;;;;;;;;;4982272;28;19933;-76
2022/08/22 04:42:33;;;;;;;;;;;;;;;;;;5001634;28;19933;-77
2022/08/22 04:45:00;;;;;;;;;;;;;;;;;;5000199;28;19937;-77
2022/08/22 04:47:28;;;;;;;;;;;;;;;;;;5007237;28;20009;-76
2022/08/22 04:49:55;;;;;;;;;;;;;;;;;;4992949;28;20402;-77
2022/08/22 04:52:23;;;;;;;;;;;;;;;;;;5006571;28;19929;-77
2022/08/22 04:54:50;;;;;;;;;;;;;;;;;;5009424;28;19929;-76
2022/08/22 04:57:18;;;;;;;;;;;;;;;;;;5006272;28;19925;-77
2022/08/22 04:59:45;;;;;;;;;;;;;;;;;;5001137;28;19933;-76
2022/08/22 05:02:12;;;;;;;;;;;;;;;;;;5002477;28;19929;-78
2022/08/22 05:04:40;;;;;;;;;;;;;;;;;;5006997;28;19929;-76
2022/08/22 05:07:07;;;;;;;;;;;;;;;;;;4996256;28;20377;-77
2022/08/22 05:09:34;;;;;;;;;;;;;;;;;;4989697;28;20011;-77
2022/08/22 05:12:02;;;;;;;;;;;;;;;;;;4996773;28;19940;-76
2022/08/22 05:14:29;;;;;;;;;;;;;;;;;;5003372;28;19980;-75
2022/08/22 05:16:56;;;;;;;;;;;;;;;;;;4996668;28;20313;-75
2022/08/22 05:19:24;;;;;;;;;;;;;;;;;;5049800;23;19924;-82
2022/08/22 05:21:57;;;;;;;;;;;;;;;;;;5044603;28;19963;-82
2022/08/22 05:24:25;;;;;;;;;;;;;;;;;;5032917;28;19936;-82
2022/08/22 05:26:56;;;;;;;;;;;;;;;;;;5050853;28;19925;-83
2022/08/22 05:29:26;;;;;;;;;;;;;;;;;;5016221;28;19925;-83
2022/08/22 05:31:53;;;;;;;;;;;;;;;;;;5029617;28;19990;-83
2022/08/22 05:34:20;;;;;;;;;;;;;;;;;;5044148;28;19939;-84
2022/08/22 05:36:48;;;;;;;;;;;;;;;;;;5045686;28;19939;-83
2022/08/22 05:39:19;;;;;;;;;;;;;;;;;;5049537;28;19940;-83
2022/08/22 05:41:46;;;;;;;;;;;;;;;;;;5030274;28;19962;-82
2022/08/22 05:44:14;;;;;;;;;;;;;;;;;;5057740;28;19987;-83
2022/08/22 05:46:41;;;;;;;;;;;;;;;;;;5041350;28;19940;-81
2022/08/22 05:49:08;;;;;;;;;;;;;;;;;;5060345;28;19932;-83
2022/08/22 05:51:35;;;;;;;;;;;;;;;;;;5042510;28;19925;-82
2022/08/22 05:54:03;;;;;;;;;;;;;;;;;;5051956;28;19929;-82
2022/08/22 05:56:30;;;;;;;;;;;;;;;;;;5042615;28;19935;-83
2022/08/22 05:58:58;;;;;;;;;;;;;;;;;;5065076;28;19992;-83
2022/08/22 06:01:26;;;;;;;;;;;;;;;;;;5057933;28;19970;-83
2022/08/22 06:04:04;;;;;;;;;;;;;;;;;;5048725;28;19939;-83
2022/08/22 06:06:34;;;;;;;;;;;;;;;;;;5040826;28;20420;-83
2022/08/22 06:09:01;;;;;;;;;;;;;;;;;;5057585;28;19956;-84
2022/08/22 06:11:31;;;;;;;;;;;;;;;;;;5025384;28;19932;-83
2022/08/22 06:14:01;;;;;;;;;;;;;;;;;;5061761;28;19941;-83
2022/08/22 06:16:28;;;;;;;;;;;;;;;;;;5052571;28;19924;-84
2022/08/22 06:18:56;;;;;;;;;;;;;;;;;;5055134;28;19971;-83
2022/08/22 06:21:23;;;;;;;;;;;;;;;;;;5048295;28;19933;-83
2022/08/22 06:23:50;;;;;;;;;;;;;;;;;;5039903;28;19955;-87
2022/08/22 06:26:18;;;;;;;;;;;;;;;;;;5022930;28;19992;-84
2022/08/22 06:28:53;;;;;;;;;;;;;;;;;;5025703;28;19975;-83
2022/08/22 06:31:24;;;;;;;;;;;;;;;;;;5020279;28;19987;-85
2022/08/22 06:33:53;;;;;;;;;;;;;;;;;;5051965;28;19931;-84
2022/08/22 06:36:29;;;;;;;;;;;;;;;;;;4999821;28;19939;-84
2022/08/22 06:38:57;;;;;;;;;;;;;;;;;;5048858;28;19939;-84
2022/08/22 06:41:24;;;;;;;;;;;;;;;;;;5022361;28;19929;-83
2022/08/22 06:43:52;;;;;;;;;;;;;;;;;;5052649;28;19983;-84
2022/08/22 06:46:20;;;;;;;;;;;;;;;;;;5052287;28;20650;-84
2022/08/22 06:48:47;;;;;;;;;;;;;;;;;;5020975;28;19929;-83
2022/08/22 06:51:14;;;;;;;;;;;;;;;;;;5041132;28;19948;-84
2022/08/22 06:53:42;;;;;;;;;;;;;;;;;;5019584;28;19932;-84
2022/08/22 06:56:14;;;;;;;;;;;;;;;;;;5013905;28;19936;-84
2022/08/22 06:58:41;;;;;;;;;;;;;;;;;;5035453;28;19960;-83
2022/08/22 07:01:09;;;;;;;;;;;;;;;;;;5054347;28;19933;-84
2022/08/22 07:03:38;;;;;;;;;;;;;;;;;;5056174;28;20398;-84
2022/08/22 07:06:05;;;;;;;;;;;;;;;;;;5048540;28;19928;-85
2022/08/22 07:08:32;;;;;;;;;;;;;;;;;;5056238;28;20424;-84
2022/08/22 07:11:09;;;;;;;;;;;;;;;;;;5034327;28;19925;-84
2022/08/22 07:13:36;;;;;;;;;;;;;;;;;;5037562;28;19925;-84
2022/08/22 07:16:05;;;;;;;;;;;;;;;;;;5042270;28;19959;-84
2022/08/22 07:18:33;;;;;;;;;;;;;;;;;;5037017;28;20036;-84
2022/08/22 07:21:03;;;;;;;;;;;;;;;;;;5036999;28;19928;-85
2022/08/22 07:23:31;;;;;;;;;;;;;;;;;;5045158;28;19932;-84
2022/08/22 07:25:58;;;;;;;;;;;;;;;;;;5058644;28;19924;-84
2022/08/22 07:28:25;;;;;;;;;;;;;;;;;;5047997;28;19928;-84
2022/08/22 07:31:03;;;;;;;;;;;;;;;;;;5059450;28;19998;-85
2022/08/22 07:33:30;;;;;;;;;;;;;;;;;;5054198;28;20007;-83
2022/08/22 07:35:57;;;;;;;;;;;;;;;;;;5032652;28;19928;-83
2022/08/22 07:38:28;;;;;;;;;;;;;;;;;;5056411;28;19929;-82
2022/08/22 07:40:58;;;;;;;;;;;;;;;;;;5041279;28;19929;-83
2022/08/22 07:43:26;;;;;;;;;;;;;;;;;;5030348;28;19925;-83
2022/08/22 07:45:53;;;;;;;;;;;;;;;;;;5058457;28;19929;-83
2022/08/22 07:48:22;;;;;;;;;;;;;;;;;;5045789;28;20019;-84
2022/08/22 07:50:52;;;;;;;;;;;;;;;;;;5054417;28;19929;-84
2022/08/22 07:53:19;;;;;;;;;;;;;;;;;;5061129;28;19935;-84
2022/08/22 07:55:47;;;;;;;;;;;;;;;;;;5051441;28;19928;-84
2022/08/22 07:58:15;;;;;;;;;;;;;;;;;;5053865;28;19924;-84
2022/08/22 08:00:44;;;;;;;;;;;;;;;;;;5070129;28;19929;-84
2022/08/22 08:03:12;;;;;;;;;;;;;;;;;;5066986;28;20340;-85
2022/08/22 08:05:43;;;;;;;;;;;;;;;;;;5059135;28;20015;-84
2022/08/22 08:08:10;;;;;;;;;;;;;;;;;;5041516;28;19929;-84
2022/08/22 08:10:41;;;;;;;;;;;;;;;;;;5025297;28;20019;-84
2022/08/22 08:13:08;;;;;;;;;;;;;;;;;;5054280;28;20391;-83
2022/08/22 08:15:36;;;;;;;;;;;;;;;;;;5053913;28;19928;-84
2022/08/22 08:18:04;;;;;;;;;;;;;;;;;;5039673;28;19960;-84
2022/08/22 08:20:31;;;;;;;;;;;;;;;;;;5050351;28;19924;-84
2022/08/22 08:22:58;;;;;;;;;;;;;;;;;;5052752;28;20561;-82
2022/08/22 08:25:25;;;;;;;;;;;;;;;;;;5054474;28;20318;-85
2022/08/22 08:30:39;;;;;;;;;;;;;;;;;;5051707;28;19944;-83
2022/08/22 08:33:07;;;;;;;;;;;;;;;;;;5002238;28;19983;-84
2022/08/22 08:35:50;;;;;;;;;;;;;;;;;;5033509;28;20301;-84
2022/08/22 08:38:30;;;;;;;;;;;;;;;;;;5052571;28;19960;-84
2022/08/22 08:40:57;;;;;;;;;;;;;;;;;;5034239;28;20031;-84
2022/08/22 08:43:28;;;;;;;;;;;;;;;;;;5051224;28;19932;-84
2022/08/22 08:45:56;;;;;;;;;;;;;;;;;;5027585;28;20481;-84
2022/08/22 08:48:27;;;;;;;;;;;;;;;;;;5042928;28;19929;-85
2022/08/22 08:50:55;;;;;;;;;;;;;;;;;;5044342;28;20165;-84
2022/08/22 08:53:23;;;;;;;;;;;;;;;;;;5040426;28;19929;-84
2022/08/22 08:55:53;;;;;;;;;;;;;;;;;;5040335;28;20318;-86
2022/08/22 08:58:20;;;;;;;;;;;;;;;;;;5048746;28;19929;-83
2022/08/22 09:00:47;;;;;;;;;;;;;;;;;;5051890;28;20560;-83
2022/08/22 09:03:15;;;;;;;;;;;;;;;;;;5052593;28;20012;-84
2022/08/22 09:05:47;;;;;;;;;;;;;;;;;;5037281;28;19995;-84
2022/08/22 09:08:15;;;;;;;;;;;;;;;;;;5052564;28;19936;-84
2022/08/22 09:10:44;;;;;;;;;;;;;;;;;;5053126;28;19936;-84
2022/08/22 09:13:11;;;;;;;;;;;;;;;;;;5036202;28;19936;-84
2022/08/22 09:15:39;;;;;;;;;;;;;;;;;;5017508;28;19963;-84
2022/08/22 09:18:08;;;;;;;;;;;;;;;;;;5050450;28;20007;-84
2022/08/22 09:20:35;;;;;;;;;;;;;;;;;;5040412;28;20279;-85
2022/08/22 09:23:02;;;;;;;;;;;;;;;;;;5053074;28;20366;-85
2022/08/22 09:25:30;;;;;;;;;;;;;;;;;;5046132;28;19931;-84
2022/08/22 09:28:04;;;;;;;;;;;;;;;;;;4997296;28;19951;-84
2022/08/22 09:30:32;;;;;;;;;;;;;;;;;;5038224;28;19994;-84
2022/08/22 09:32:59;;;;;;;;;;;;;;;;;;5056519;28;19964;-84
2022/08/22 09:35:27;;;;;;;;;;;;;;;;;;5055147;28;20043;-85
2022/08/22 09:37:54;;;;;;;;;;;;;;;;;;5036857;28;20410;-83
2022/08/22 09:40:24;;;;;;;;;;;;;;;;;;5055246;28;19952;-84
2022/08/22 09:42:58;;;;;;;;;;;;;;;;;;5044677;28;20369;-85
2022/08/22 09:45:25;;;;;;;;;;;;;;;;;;5066039;28;19964;-84
2022/08/22 09:47:52;;;;;;;;;;;;;;;;;;5065224;28;19925;-85
2022/08/22 09:50:20;;;;;;;;;;;;;;;;;;5067639;28;19959;-83
2022/08/22 09:52:47;;;;;;;;;;;;;;;;;;5066971;28;19924;-83
2022/08/22 09:55:15;;;;;;;;;;;;;;;;;;5048153;28;19929;-84
2022/08/22 09:57:43;;;;;;;;;;;;;;;;;;5043551;28;19968;-84
2022/08/22 10:00:12;;;;;;;;;;;;;;;;;;5060931;28;20012;-84
2022/08/22 10:02:39;;;;;;;;;;;;;;;;;;5060218;28;19939;-83
2022/08/22 10:05:09;;;;;;;;;;;;;;;;;;5041734;28;19959;-84
2022/08/22 10:07:37;;;;;;;;;;;;;;;;;;5054554;28;19935;-84
2022/08/22 10:10:04;;;;;;;;;;;;;;;;;;5052206;28;19986;-84
2022/08/22 10:12:31;;;;;;;;;;;;;;;;;;5043837;28;19924;-82
2022/08/22 10:15:03;;;;;;;;;;;;;;;;;;5046913;28;19929;-84
2022/08/22 10:17:31;;;;;;;;;;;;;;;;;;5033118;28;19936;-84
2022/08/22 10:19:58;;;;;;;;;;;;;;;;;;5017416;28;20295;-84
2022/08/22 10:22:25;;;;;;;;;;;;;;;;;;5052514;28;19936;-84
2022/08/22 10:24:57;;;;;;;;;;;;;;;;;;5052554;28;19931;-84
2022/08/22 10:27:24;;;;;;;;;;;;;;;;;;5052414;28;20354;-84
2022/08/22 10:29:52;;;;;;;;;;;;;;;;;;5053130;28;19929;-83
2022/08/22 10:32:19;;;;;;;;;;;;;;;;;;5035075;28;20381;-83
2022/08/22 10:34:46;;;;;;;;;;;;;;;;;;5035084;28;19924;-85
2022/08/22 10:37:13;;;;;;;;;;;;;;;;;;5034789;28;19936;-86
2022/08/22 10:39:41;;;;;;;;;;;;;;;;;;5054155;28;20306;-85
2022/08/22 10:42:12;;;;;;;;;;;;;;;;;;5053655;28;19925;-85
2022/08/22 10:44:39;;;;;;;;;;;;;;;;;;5035785;28;19925;-85
2022/08/22 10:47:06;;;;;;;;;;;;;;;;;;5054034;28;19929;-83
2022/08/22 10:49:34;;;;;;;;;;;;;;;;;;5020121;28;19967;-83
2022/08/22 10:52:04;;;;;;;;;;;;;;;;;;5056020;28;20733;-85
2022/08/22 10:54:41;;;;;;;;;;;;;;;;;;5056982;28;20023;-84
2022/08/22 10:57:09;;;;;;;;;;;;;;;;;;5057502;28;20039;-85
2022/08/22 10:59:36;;;;;;;;;;;;;;;;;;5055702;28;20023;-85
2022/08/22 11:02:06;;;;;;;;;;;;;;;;;;5045721;28;20418;-83
2022/08/22 11:04:34;;;;;;;;;;;;;;;;;;5056722;28;20374;-83
2022/08/22 11:07:02;;;;;;;;;;;;;;;;;;5053845;28;20046;-83
2022/08/22 11:09:31;;;;;;;;;;;;;;;;;;5050560;28;19967;-82
2022/08/22 11:12:02;;;;;;;;;;;;;;;;;;5059047;28;19928;-83
2022/08/22 11:14:31;;;;;;;;;;;;;;;;;;5049601;28;19929;-82
2022/08/22 11:16:59;;;;;;;;;;;;;;;;;;5049131;28;19935;-84
2022/08/22 11:19:26;;;;;;;;;;;;;;;;;;5057611;28;19935;-84
2022/08/22 11:21:53;;;;;;;;;;;;;;;;;;5030714;28;19933;-84
2022/08/22 11:24:21;;;;;;;;;;;;;;;;;;5058039;28;19925;-85
2022/08/22 11:27:01;;;;;;;;;;;;;;;;;;5059978;28;19933;-84
2022/08/22 11:29:28;;;;;;;;;;;;;;;;;;5059385;28;19929;-83
2022/08/22 11:31:58;;;;;;;;;;;;;;;;;;5064518;28;19921;-85
2022/08/22 11:34:32;;;;;;;;;;;;;;;;;;5062626;28;19928;-84
2022/08/22 11:36:59;;;;;;;;;;;;;;;;;;5062610;28;20044;-83
2022/08/22 11:39:27;;;;;;;;;;;;;;;;;;5060261;28;19959;-85
2022/08/22 11:41:54;;;;;;;;;;;;;;;;;;5055198;28;19959;-84
2022/08/22 11:44:21;;;;;;;;;;;;;;;;;;5049994;28;19928;-84
2022/08/22 11:46:48;;;;;;;;;;;;;;;;;;5054738;28;20601;-83
2022/08/22 11:49:18;;;;;;;;;;;;;;;;;;5061586;28;19928;-82
2022/08/22 11:51:45;;;;;;;;;;;;;;;;;;5054133;28;19928;-82
2022/08/22 11:54:15;;;;;;;;;;;;;;;;;;5059139;28;20417;-84
2022/08/22 11:56:43;;;;;;;;;;;;;;;;;;5056014;28;20264;-84
2022/08/22 11:59:11;;;;;;;;;;;;;;;;;;5048217;28;19936;-83
2022/08/22 12:01:38;;;;;;;;;;;;;;;;;;5051669;28;19924;-84
2022/08/22 12:04:05;;;;;;;;;;;;;;;;;;5042894;28;19935;-84
2022/08/22 12:06:36;;;;;;;;;;;;;;;;;;5057551;28;19928;-85
2022/08/22 12:09:03;;;;;;;;;;;;;;;;;;5056922;28;19928;-84
2022/08/22 12:11:30;;;;;;;;;;;;;;;;;;5060351;28;19939;-84
2022/08/22 12:13:58;;;;;;;;;;;;;;;;;;5041989;28;19929;-83
2022/08/22 12:16:32;;;;;;;;;;;;;;;;;;5026762;28;19970;-85
2022/08/22 12:18:59;;;;;;;;;;;;;;;;;;5053666;28;20333;-84
2022/08/22 12:21:26;;;;;;;;;;;;;;;;;;5023977;28;19925;-83
2022/08/22 12:23:54;;;;;;;;;;;;;;;;;;5052927;28;20559;-84
2022/08/22 12:26:24;;;;;;;;;;;;;;;;;;5025363;28;19929;-83
2022/08/22 12:28:54;;;;;;;;;;;;;;;;;;5020703;28;20006;-83
2022/08/22 12:31:22;;;;;;;;;;;;;;;;;;5058187;28;20424;-82
2022/08/22 12:33:54;;;;;;;;;;;;;;;;;;5033987;28;19964;-83
2022/08/22 12:36:24;;;;;;;;;;;;;;;;;;5056335;28;19939;-85
2022/08/22 12:38:51;;;;;;;;;;;;;;;;;;5056807;28;19925;-83
2022/08/22 12:41:19;;;;;;;;;;;;;;;;;;5058779;28;20556;-83
2022/08/22 12:43:54;;;;;;;;;;;;;;;;;;5051953;28;20098;-84
2022/08/22 12:46:21;;;;;;;;;;;;;;;;;;5054838;28;20298;-83
2022/08/22 12:48:51;;;;;;;;;;;;;;;;;;5037804;28;19925;-84
2022/08/22 12:51:21;;;;;;;;;;;;;;;;;;5045743;28;19972;-84
2022/08/22 12:53:48;;;;;;;;;;;;;;;;;;5055581;28;20015;-83
2022/08/22 12:56:15;;;;;;;;;;;;;;;;;;5016531;28;19933;-83
2022/08/22 12:58:43;;;;;;;;;;;;;;;;;;5032645;28;20241;-83
2022/08/22 13:01:14;;;;;;;;;;;;;;;;;;5038833;28;19944;-83
2022/08/22 13:03:43;;;;;;;;;;;;;;;;;;5034165;28;19928;-85
2022/08/22 13:06:11;;;;;;;;;;;;;;;;;;5016500;28;19936;-83
2022/08/22 13:08:45;;;;;;;;;;;;;;;;;;5051709;28;19990;-83
2022/08/22 13:11:12;;;;;;;;;;;;;;;;;;5027786;28;20266;-83
2022/08/22 13:13:49;;;;;;;;;;;;;;;;;;5041010;28;19929;-81
2022/08/22 13:16:22;;;;;;;;;;;;;;;;;;5042411;28;19990;-84
2022/08/22 13:18:50;;;;;;;;;;;;;;;;;;5058683;28;19929;-83
2022/08/22 13:21:19;;;;;;;;;;;;;;;;;;5053062;28;20021;-84
2022/08/22 13:23:47;;;;;;;;;;;;;;;;;;5058923;28;19951;-85
2022/08/22 13:26:16;;;;;;;;;;;;;;;;;;5055316;28;19929;-84
2022/08/22 13:28:59;;;;;;;;;;;;;;;;;;5006964;28;19933;-84
2022/08/22 13:31:49;;;;;;;;;;;;;;;;;;5060370;28;19955;-83
2022/08/22 13:34:17;;;;;;;;;;;;;;;;;;5064114;28;19925;-82
2022/08/22 13:36:49;;;;;;;;;;;;;;;;;;5049032;28;20180;-84
2022/08/22 13:39:18;;;;;;;;;;;;;;;;;;5039642;28;20425;-83
2022/08/22 13:41:45;;;;;;;;;;;;;;;;;;5039362;28;20665;-84
2022/08/22 13:44:15;;;;;;;;;;;;;;;;;;5053023;28;19929;-85
2022/08/22 13:46:43;;;;;;;;;;;;;;;;;;5033207;28;20471;-85
2022/08/22 13:49:31;;;;;;;;;;;;;;;;;;5031430;28;19929;-84
2022/08/22 13:52:02;;;;;;;;;;;;;;;;;;5031208;28;20347;-84
2022/08/22 13:54:34;;;;;;;;;;;;;;;;;;5030128;28;19924;-85
2022/08/22 13:57:06;;;;;;;;;;;;;;;;;;5035656;28;20345;-84
2022/08/22 13:59:37;;;;;;;;;;;;;;;;;;5025677;28;19932;-85
2022/08/22 14:02:23;;;;;;;;;;;;;;;;;;5021106;28;19933;-84
2022/08/22 14:04:57;;;;;;;;;;;;;;;;;;5035226;28;19928;-83
2022/08/22 14:07:24;;;;;;;;;;;;;;;;;;5012922;28;19933;-85
2022/08/22 14:09:53;;;;;;;;;;;;;;;;;;5013981;28;19947;-84
2022/08/22 14:12:26;;;;;;;;;;;;;;;;;;5016198;28;20396;-84
2022/08/22 14:15:02;;;;;;;;;;;;;;;;;;5017694;28;19935;-84
2022/08/22 14:17:30;;;;;;;;;;;;;;;;;;5027979;28;19924;-84
2022/08/22 14:19:57;;;;;;;;;;;;;;;;;;5032852;23;20325;-75
2022/08/22 14:22:25;;;;;;;;;;;;;;;;;;5030481;28;20375;-73
2022/08/22 14:24:58;;;;;;;;;;;;;;;;;;5045545;28;19929;-75
2022/08/22 14:27:26;;;;;;;;;;;;;;;;;;5048187;28;19994;-74
2022/08/22 14:29:53;;;;;;;;;;;;;;;;;;5011046;28;20327;-74
2022/08/22 14:32:20;;;;;;;;;;;;;;;;;;5044058;28;20323;-75
2022/08/22 14:34:49;;;;;;;;;;;;;;;;;;5029284;28;19929;-76
2022/08/22 14:37:17;;;;;;;;;;;;;;;;;;5028616;28;19968;-77
2022/08/22 14:39:44;;;;;;;;;;;;;;;;;;5024703;28;20300;-76
2022/08/22 14:42:11;;;;;;;;;;;;;;;;;;5055330;28;19929;-75
2022/08/22 14:44:39;;;;;;;;;;;;;;;;;;5035426;28;20216;-75
2022/08/22 14:47:06;;;;;;;;;;;;;;;;;;5045663;28;19928;-73
2022/08/22 14:49:54;;;;;;;;;;;;;;;;;;5047517;28;19936;-74
2022/08/22 14:52:21;;;;;;;;;;;;;;;;;;5028824;28;19936;-75
2022/08/22 14:54:48;;;;;;;;;;;;;;;;;;5063935;28;20350;-74
2022/08/22 14:57:17;;;;;;;;;;;;;;;;;;5052192;28;19924;-74
2022/08/22 14:59:46;;;;;;;;;;;;;;;;;;5060707;28;19928;-73
2022/08/22 15:02:16;;;;;;;;;;;;;;;;;;5066269;28;19928;-74
2022/08/22 15:04:44;;;;;;;;;;;;;;;;;;5064472;28;19968;-76
2022/08/22 15:07:11;;;;;;;;;;;;;;;;;;5055160;28;20023;-75
2022/08/22 15:09:39;;;;;;;;;;;;;;;;;;5028280;28;20307;-74
2022/08/22 15:12:07;;;;;;;;;;;;;;;;;;5043055;28;20041;-74
2022/08/22 15:14:34;;;;;;;;;;;;;;;;;;5027042;28;19936;-74
2022/08/22 15:17:02;;;;;;;;;;;;;;;;;;5029652;28;20504;-74
2022/08/22 15:19:29;;;;;;;;;;;;;;;;;;5017169;28;20370;-74
2022/08/22 15:21:57;;;;;;;;;;;;;;;;;;5023962;28;20255;-76
2022/08/22 15:24:24;;;;;;;;;;;;;;;;;;5044480;28;20238;-76
2022/08/22 15:26:51;;;;;;;;;;;;;;;;;;5044670;28;19939;-76
2022/08/22 15:29:19;;;;;;;;;;;;;;;;;;5008017;28;20120;-77
2022/08/22 15:31:46;;;;;;;;;;;;;;;;;;5039367;28;19963;-75
2022/08/22 15:34:14;;;;;;;;;;;;;;;;;;5026651;28;20460;-76
2022/08/22 15:36:44;;;;;;;;;;;;;;;;;;5008034;28;19925;-75
2022/08/22 15:39:11;;;;;;;;;;;;;;;;;;5029682;28;19994;-75
2022/08/22 15:41:38;;;;;;;;;;;;;;;;;;5030032;28;19924;-75
2022/08/22 15:44:06;;;;;;;;;;;;;;;;;;5037224;28;19929;-76
2022/08/22 15:46:33;;;;;;;;;;;;;;;;;;5048671;28;20012;-77
2022/08/22 15:49:00;;;;;;;;;;;;;;;;;;5029507;28;19928;-78
2022/08/22 15:51:28;;;;;;;;;;;;;;;;;;5043946;28;20495;-77
2022/08/22 15:53:55;;;;;;;;;;;;;;;;;;5043398;28;20432;-76
2022/08/22 15:56:22;;;;;;;;;;;;;;;;;;5045138;28;20004;-75
2022/08/22 15:58:50;;;;;;;;;;;;;;;;;;5035392;28;20312;-76
2022/08/22 16:01:17;;;;;;;;;;;;;;;;;;5019213;28;20039;-77
2022/08/22 16:03:46;;;;;;;;;;;;;;;;;;5042681;28;19972;-77
2022/08/22 16:06:13;;;;;;;;;;;;;;;;;;5024616;28;19964;-76
2022/08/22 16:08:40;;;;;;;;;;;;;;;;;;5042331;28;19928;-76
2022/08/22 16:11:07;;;;;;;;;;;;;;;;;;5022383;28;19972;-77
2022/08/22 16:13:35;;;;;;;;;;;;;;;;;;5027849;28;19929;-76
2022/08/22 16:16:05;;;;;;;;;;;;;;;;;;5043800;28;19932;-76
2022/08/22 16:18:33;;;;;;;;;;;;;;;;;;5043552;28;20379;-76
2022/08/22 16:21:00;;;;;;;;;;;;;;;;;;5040908;28;20008;-75
2022/08/22 16:23:27;;;;;;;;;;;;;;;;;;5045573;28;20027;-77
2022/08/22 16:25:54;;;;;;;;;;;;;;;;;;5042922;28;19931;-75
2022/08/22 16:28:22;;;;;;;;;;;;;;;;;;5045395;28;19936;-76
2022/08/22 16:31:07;;;;;;;;;;;;;;;;;;5046336;28;19928;-76
2022/08/22 16:33:35;;;;;;;;;;;;;;;;;;5047000;28;20070;-75
2022/08/22 16:36:02;;;;;;;;;;;;;;;;;;5048620;28;20304;-75
2022/08/22 16:38:29;;;;;;;;;;;;;;;;;;5045852;28;19944;-75
2022/08/22 16:41:00;;;;;;;;;;;;;;;;;;5013527;28;20289;-75
2022/08/22 16:43:28;;;;;;;;;;;;;;;;;;5046617;28;19928;-78
2022/08/22 16:45:55;;;;;;;;;;;;;;;;;;5039146;28;20340;-75
2022/08/22 16:48:22;;;;;;;;;;;;;;;;;;5044316;28;19933;-76
2022/08/22 16:50:50;;;;;;;;;;;;;;;;;;5023450;28;19929;-76
2022/08/22 16:53:18;;;;;;;;;;;;;;;;;;5045406;28;20388;-75
2022/08/22 16:55:45;;;;;;;;;;;;;;;;;;5042323;28;20340;-74
2022/08/22 16:58:13;;;;;;;;;;;;;;;;;;5040059;28;19929;-75